sensor_id;sensor_type;location;lat;lon;timestamp;P1;durP1;ratioP1;P2;durP2;ratioP2
14116;SDS011;7137;51.436;6.544;2022-08-19T00:00:48;8.90;;;7.37;;
14116;SDS011;7137;51.436;6.544;2022-08-19T00:03:50;8.40;;;7.60;;
14116;SDS011;7137;51.436;6.544;2022-08-19T00:06:52;8.90;;;8.10;;
14116;SDS011;7137;51.436;6.544;2022-08-19T00:09:53;8.90;;;8.00;;
14116;SDS011;7137;51.436;6.544;2022-08-19T00:12:56;8.40;;;7.60;;
14116;SDS011;7137;51.436;6.544;2022-08-19T00:16:00;7.90;;;7.10;;
14116;SDS011;7137;51.436;6.544;2022-08-19T00:19:02;8.07;;;7.27;;
14116;SDS011;7137;51.436;6.544;2022-08-19T00:22:04;7.90;;;7.10;;
14116;SDS011;7137;51.436;6.544;2022-08-19T00:25:06;8.60;;;7.40;;
14116;SDS011;7137;51.436;6.544;2022-08-19T00:28:09;7.90;;;7.10;;
14116;SDS011;7137;51.436;6.544;2022-08-19T00:31:12;8.10;;;7.30;;
14116;SDS011;7137;51.436;6.544;2022-08-19T00:34:14;8.03;;;7.23;;
14116;SDS011;7137;51.436;6.544;2022-08-19T00:37:16;8.33;;;7.43;;
14116;SDS011;7137;51.436;6.544;2022-08-19T00:40:18;9.20;;;8.30;;
14116;SDS011;7137;51.436;6.544;2022-08-19T00:43:20;9.50;;;7.90;;
14116;SDS011;7137;51.436;6.544;2022-08-19T00:46:25;7.73;;;7.03;;
14116;SDS011;7137;51.436;6.544;2022-08-19T00:49:28;7.47;;;6.77;;
14116;SDS011;7137;51.436;6.544;2022-08-19T00:52:33;8.60;;;7.80;;
14116;SDS011;7137;51.436;6.544;2022-08-19T00:55:38;9.20;;;8.40;;
14116;SDS011;7137;51.436;6.544;2022-08-19T00:58:40;9.40;;;8.50;;
14116;SDS011;7137;51.436;6.544;2022-08-19T01:01:43;9.23;;;8.33;;
14116;SDS011;7137;51.436;6.544;2022-08-19T01:04:46;10.20;;;9.30;;
14116;SDS011;7137;51.436;6.544;2022-08-19T01:07:48;10.23;;;9.33;;
14116;SDS011;7137;51.436;6.544;2022-08-19T01:10:52;9.90;;;9.00;;
14116;SDS011;7137;51.436;6.544;2022-08-19T01:13:55;10.70;;;9.70;;
14116;SDS011;7137;51.436;6.544;2022-08-19T01:17:00;9.80;;;8.80;;
14116;SDS011;7137;51.436;6.544;2022-08-19T01:20:02;10.07;;;9.10;;
14116;SDS011;7137;51.436;6.544;2022-08-19T01:23:06;10.50;;;9.50;;
14116;SDS011;7137;51.436;6.544;2022-08-19T01:26:09;10.70;;;9.70;;
14116;SDS011;7137;51.436;6.544;2022-08-19T01:29:13;10.03;;;9.10;;
14116;SDS011;7137;51.436;6.544;2022-08-19T01:32:16;10.10;;;9.10;;
14116;SDS011;7137;51.436;6.544;2022-08-19T01:35:20;9.70;;;8.80;;
14116;SDS011;7137;51.436;6.544;2022-08-19T01:38:25;9.43;;;8.53;;
14116;SDS011;7137;51.436;6.544;2022-08-19T01:41:31;9.53;;;8.63;;
14116;SDS011;7137;51.436;6.544;2022-08-19T01:44:34;9.53;;;8.57;;
14116;SDS011;7137;51.436;6.544;2022-08-19T01:47:37;9.23;;;8.33;;
14116;SDS011;7137;51.436;6.544;2022-08-19T01:50:39;9.70;;;8.70;;
14116;SDS011;7137;51.436;6.544;2022-08-19T01:53:45;10.00;;;8.77;;
14116;SDS011;7137;51.436;6.544;2022-08-19T01:56:48;8.60;;;7.80;;
14116;SDS011;7137;51.436;6.544;2022-08-19T01:59:50;9.20;;;8.30;;
14116;SDS011;7137;51.436;6.544;2022-08-19T02:02:52;9.23;;;8.33;;
14116;SDS011;7137;51.436;6.544;2022-08-19T02:05:55;9.13;;;8.23;;
14116;SDS011;7137;51.436;6.544;2022-08-19T02:08:58;8.73;;;7.93;;
14116;SDS011;7137;51.436;6.544;2022-08-19T02:12:00;10.17;;;8.20;;
14116;SDS011;7137;51.436;6.544;2022-08-19T02:15:03;9.10;;;8.20;;
14116;SDS011;7137;51.436;6.544;2022-08-19T02:18:07;9.67;;;8.77;;
14116;SDS011;7137;51.436;6.544;2022-08-19T02:21:08;10.27;;;9.27;;
14116;SDS011;7137;51.436;6.544;2022-08-19T02:24:12;11.60;;;10.50;;
14116;SDS011;7137;51.436;6.544;2022-08-19T02:31:09;13.00;;;11.70;;
14116;SDS011;7137;51.436;6.544;2022-08-19T02:34:12;12.23;;;11.10;;
14116;SDS011;7137;51.436;6.544;2022-08-19T02:37:14;12.53;;;11.37;;
14116;SDS011;7137;51.436;6.544;2022-08-19T02:40:31;12.27;;;11.17;;
14116;SDS011;7137;51.436;6.544;2022-08-19T02:43:34;12.17;;;10.97;;
14116;SDS011;7137;51.436;6.544;2022-08-19T02:46:36;12.00;;;10.90;;
14116;SDS011;7137;51.436;6.544;2022-08-19T02:49:37;12.70;;;11.57;;
14116;SDS011;7137;51.436;6.544;2022-08-19T02:52:39;12.07;;;10.97;;
14116;SDS011;7137;51.436;6.544;2022-08-19T02:55:45;12.97;;;11.77;;
14116;SDS011;7137;51.436;6.544;2022-08-19T02:58:48;13.13;;;11.93;;
14116;SDS011;7137;51.436;6.544;2022-08-19T03:01:49;14.80;;;13.50;;
14116;SDS011;7137;51.436;6.544;2022-08-19T03:04:51;15.90;;;14.50;;
14116;SDS011;7137;51.436;6.544;2022-08-19T03:07:52;15.27;;;13.87;;
14116;SDS011;7137;51.436;6.544;2022-08-19T03:10:56;15.97;;;14.47;;
14116;SDS011;7137;51.436;6.544;2022-08-19T03:13:58;16.80;;;15.30;;
14116;SDS011;7137;51.436;6.544;2022-08-19T03:17:01;16.67;;;15.27;;
14116;SDS011;7137;51.436;6.544;2022-08-19T03:20:04;17.10;;;15.53;;
14116;SDS011;7137;51.436;6.544;2022-08-19T03:23:06;17.93;;;16.33;;
14116;SDS011;7137;51.436;6.544;2022-08-19T03:26:09;18.53;;;16.93;;
14116;SDS011;7137;51.436;6.544;2022-08-19T03:29:10;23.17;;;21.17;;
14116;SDS011;7137;51.436;6.544;2022-08-19T03:32:12;25.10;;;22.90;;
14116;SDS011;7137;51.436;6.544;2022-08-19T03:35:14;22.60;;;20.70;;
14116;SDS011;7137;51.436;6.544;2022-08-19T03:38:16;22.23;;;20.37;;
14116;SDS011;7137;51.436;6.544;2022-08-19T03:41:19;24.33;;;22.03;;
14116;SDS011;7137;51.436;6.544;2022-08-19T03:44:22;21.97;;;19.97;;
14116;SDS011;7137;51.436;6.544;2022-08-19T03:47:24;20.57;;;18.83;;
14116;SDS011;7137;51.436;6.544;2022-08-19T03:50:25;20.93;;;19.13;;
14116;SDS011;7137;51.436;6.544;2022-08-19T03:53:27;23.40;;;21.37;;
14116;SDS011;7137;51.436;6.544;2022-08-19T03:56:30;21.23;;;19.23;;
14116;SDS011;7137;51.436;6.544;2022-08-19T03:59:34;22.30;;;20.30;;
14116;SDS011;7137;51.436;6.544;2022-08-19T04:02:37;23.47;;;21.37;;
14116;SDS011;7137;51.436;6.544;2022-08-19T04:05:39;23.80;;;21.70;;
14116;SDS011;7137;51.436;6.544;2022-08-19T04:08:41;25.43;;;23.23;;
14116;SDS011;7137;51.436;6.544;2022-08-19T04:11:45;27.13;;;24.73;;
14116;SDS011;7137;51.436;6.544;2022-08-19T04:14:48;24.13;;;22.03;;
14116;SDS011;7137;51.436;6.544;2022-08-19T04:17:51;25.67;;;23.37;;
14116;SDS011;7137;51.436;6.544;2022-08-19T04:20:53;24.73;;;22.60;;
14116;SDS011;7137;51.436;6.544;2022-08-19T04:23:54;25.90;;;23.60;;
14116;SDS011;7137;51.436;6.544;2022-08-19T04:27:00;26.83;;;24.43;;
14116;SDS011;7137;51.436;6.544;2022-08-19T04:30:02;28.43;;;25.93;;
14116;SDS011;7137;51.436;6.544;2022-08-19T04:33:05;30.87;;;27.97;;
14116;SDS011;7137;51.436;6.544;2022-08-19T04:36:07;31.50;;;28.70;;
14116;SDS011;7137;51.436;6.544;2022-08-19T04:39:11;37.47;;;34.17;;
14116;SDS011;7137;51.436;6.544;2022-08-19T04:42:15;39.07;;;35.53;;
14116;SDS011;7137;51.436;6.544;2022-08-19T04:45:35;40.53;;;36.83;;
14116;SDS011;7137;51.436;6.544;2022-08-19T04:48:38;39.97;;;36.40;;
14116;SDS011;7137;51.436;6.544;2022-08-19T04:51:40;40.53;;;36.77;;
14116;SDS011;7137;51.436;6.544;2022-08-19T04:54:43;38.67;;;35.20;;
14116;SDS011;7137;51.436;6.544;2022-08-19T04:57:46;37.70;;;34.37;;
14116;SDS011;7137;51.436;6.544;2022-08-19T05:00:47;37.37;;;33.93;;
14116;SDS011;7137;51.436;6.544;2022-08-19T05:03:49;37.27;;;33.87;;
14116;SDS011;7137;51.436;6.544;2022-08-19T05:06:51;37.83;;;34.43;;
14116;SDS011;7137;51.436;6.544;2022-08-19T05:09:53;41.33;;;37.63;;
14116;SDS011;7137;51.436;6.544;2022-08-19T05:12:56;39.97;;;36.50;;
14116;SDS011;7137;51.436;6.544;2022-08-19T05:15:59;39.80;;;36.17;;
14116;SDS011;7137;51.436;6.544;2022-08-19T05:19:01;41.23;;;37.70;;
14116;SDS011;7137;51.436;6.544;2022-08-19T05:22:20;38.73;;;35.33;;
14116;SDS011;7137;51.436;6.544;2022-08-19T05:25:38;40.77;;;37.10;;
14116;SDS011;7137;51.436;6.544;2022-08-19T05:28:42;44.20;;;40.10;;
14116;SDS011;7137;51.436;6.544;2022-08-19T05:31:43;43.20;;;39.27;;
14116;SDS011;7137;51.436;6.544;2022-08-19T05:34:47;41.63;;;38.03;;
14116;SDS011;7137;51.436;6.544;2022-08-19T05:37:49;41.60;;;37.73;;
14116;SDS011;7137;51.436;6.544;2022-08-19T05:40:50;46.17;;;41.93;;
14116;SDS011;7137;51.436;6.544;2022-08-19T05:43:57;42.50;;;38.80;;
14116;SDS011;7137;51.436;6.544;2022-08-19T05:46:59;39.33;;;35.93;;
14116;SDS011;7137;51.436;6.544;2022-08-19T05:50:02;43.13;;;39.30;;
14116;SDS011;7137;51.436;6.544;2022-08-19T05:53:04;43.90;;;40.00;;
14116;SDS011;7137;51.436;6.544;2022-08-19T05:56:06;43.63;;;39.83;;
14116;SDS011;7137;51.436;6.544;2022-08-19T05:59:10;43.60;;;39.77;;
14116;SDS011;7137;51.436;6.544;2022-08-19T06:02:12;44.27;;;40.27;;
14116;SDS011;7137;51.436;6.544;2022-08-19T06:05:15;46.27;;;42.17;;
14116;SDS011;7137;51.436;6.544;2022-08-19T06:08:16;48.97;;;44.57;;
14116;SDS011;7137;51.436;6.544;2022-08-19T06:11:19;46.77;;;42.47;;
14116;SDS011;7137;51.436;6.544;2022-08-19T06:14:24;45.17;;;41.17;;
14116;SDS011;7137;51.436;6.544;2022-08-19T06:17:29;45.77;;;41.67;;
14116;SDS011;7137;51.436;6.544;2022-08-19T06:20:31;45.93;;;41.83;;
14116;SDS011;7137;51.436;6.544;2022-08-19T06:23:33;43.83;;;40.00;;
14116;SDS011;7137;51.436;6.544;2022-08-19T06:26:35;41.07;;;37.37;;
14116;SDS011;7137;51.436;6.544;2022-08-19T06:29:41;42.90;;;39.00;;
14116;SDS011;7137;51.436;6.544;2022-08-19T06:32:42;43.03;;;39.07;;
14116;SDS011;7137;51.436;6.544;2022-08-19T06:35:44;34.40;;;31.37;;
14116;SDS011;7137;51.436;6.544;2022-08-19T06:38:45;38.17;;;34.57;;
14116;SDS011;7137;51.436;6.544;2022-08-19T06:41:47;32.57;;;29.77;;
14116;SDS011;7137;51.436;6.544;2022-08-19T06:44:56;29.67;;;27.00;;
14116;SDS011;7137;51.436;6.544;2022-08-19T06:47:58;28.37;;;25.77;;
14116;SDS011;7137;51.436;6.544;2022-08-19T06:50:59;29.97;;;27.17;;
14116;SDS011;7137;51.436;6.544;2022-08-19T06:54:03;29.30;;;26.60;;
14116;SDS011;7137;51.436;6.544;2022-08-19T06:57:05;28.17;;;25.43;;
14116;SDS011;7137;51.436;6.544;2022-08-19T07:00:10;23.03;;;21.00;;
14116;SDS011;7137;51.436;6.544;2022-08-19T07:03:13;27.17;;;24.77;;
14116;SDS011;7137;51.436;6.544;2022-08-19T07:06:15;28.17;;;25.53;;
14116;SDS011;7137;51.436;6.544;2022-08-19T07:09:19;23.63;;;21.43;;
14116;SDS011;7137;51.436;6.544;2022-08-19T07:12:21;22.70;;;20.57;;
14116;SDS011;7137;51.436;6.544;2022-08-19T07:15:27;23.37;;;21.17;;
14116;SDS011;7137;51.436;6.544;2022-08-19T07:18:29;23.43;;;21.23;;
14116;SDS011;7137;51.436;6.544;2022-08-19T07:21:31;21.13;;;19.23;;
14116;SDS011;7137;51.436;6.544;2022-08-19T07:24:33;20.47;;;18.57;;
14116;SDS011;7137;51.436;6.544;2022-08-19T07:27:35;20.43;;;18.50;;
14116;SDS011;7137;51.436;6.544;2022-08-19T07:30:38;21.37;;;19.43;;
14116;SDS011;7137;51.436;6.544;2022-08-19T07:33:40;22.73;;;20.73;;
14116;SDS011;7137;51.436;6.544;2022-08-19T07:36:43;28.73;;;26.13;;
14116;SDS011;7137;51.436;6.544;2022-08-19T07:39:45;31.67;;;28.67;;
14116;SDS011;7137;51.436;6.544;2022-08-19T07:42:46;31.43;;;28.33;;
14116;SDS011;7137;51.436;6.544;2022-08-19T07:45:49;28.70;;;25.80;;
14116;SDS011;7137;51.436;6.544;2022-08-19T07:48:50;33.60;;;30.43;;
14116;SDS011;7137;51.436;6.544;2022-08-19T07:51:53;28.43;;;25.67;;
14116;SDS011;7137;51.436;6.544;2022-08-19T07:54:57;34.30;;;31.10;;
14116;SDS011;7137;51.436;6.544;2022-08-19T07:58:00;35.03;;;31.73;;
14116;SDS011;7137;51.436;6.544;2022-08-19T08:01:03;34.57;;;31.27;;
14116;SDS011;7137;51.436;6.544;2022-08-19T08:04:06;34.80;;;31.40;;
14116;SDS011;7137;51.436;6.544;2022-08-19T08:07:22;38.23;;;34.57;;
14116;SDS011;7137;51.436;6.544;2022-08-19T08:10:41;29.70;;;26.90;;
14116;SDS011;7137;51.436;6.544;2022-08-19T08:13:43;34.93;;;31.50;;
14116;SDS011;7137;51.436;6.544;2022-08-19T08:16:47;32.77;;;29.70;;
14116;SDS011;7137;51.436;6.544;2022-08-19T08:19:50;35.87;;;32.43;;
14116;SDS011;7137;51.436;6.544;2022-08-19T08:22:51;32.50;;;29.40;;
14116;SDS011;7137;51.436;6.544;2022-08-19T08:26:09;32.60;;;29.40;;
14116;SDS011;7137;51.436;6.544;2022-08-19T08:29:13;26.93;;;24.43;;
14116;SDS011;7137;51.436;6.544;2022-08-19T08:32:16;28.60;;;26.00;;
14116;SDS011;7137;51.436;6.544;2022-08-19T08:35:20;28.37;;;25.77;;
14116;SDS011;7137;51.436;6.544;2022-08-19T08:38:23;32.47;;;29.50;;
14116;SDS011;7137;51.436;6.544;2022-08-19T08:41:26;28.97;;;26.17;;
14116;SDS011;7137;51.436;6.544;2022-08-19T08:44:37;29.63;;;26.67;;
14116;SDS011;7137;51.436;6.544;2022-08-19T08:47:48;24.77;;;22.17;;
14116;SDS011;7137;51.436;6.544;2022-08-19T08:50:53;32.73;;;29.53;;
14116;SDS011;7137;51.436;6.544;2022-08-19T08:53:57;29.53;;;26.80;;
14116;SDS011;7137;51.436;6.544;2022-08-19T08:56:59;24.17;;;21.97;;
14116;SDS011;7137;51.436;6.544;2022-08-19T09:00:04;25.10;;;22.73;;
14116;SDS011;7137;51.436;6.544;2022-08-19T09:03:12;25.00;;;22.77;;
14116;SDS011;7137;51.436;6.544;2022-08-19T09:06:21;20.30;;;18.40;;
14116;SDS011;7137;51.436;6.544;2022-08-19T09:09:38;23.03;;;20.83;;
14116;SDS011;7137;51.436;6.544;2022-08-19T09:12:44;21.80;;;19.57;;
14116;SDS011;7137;51.436;6.544;2022-08-19T09:15:56;21.43;;;19.23;;
14116;SDS011;7137;51.436;6.544;2022-08-19T09:19:04;19.43;;;17.53;;
14116;SDS011;7137;51.436;6.544;2022-08-19T09:22:07;24.43;;;22.10;;
14116;SDS011;7137;51.436;6.544;2022-08-19T09:25:10;24.77;;;22.50;;
14116;SDS011;7137;51.436;6.544;2022-08-19T09:28:14;23.77;;;21.57;;
14116;SDS011;7137;51.436;6.544;2022-08-19T09:31:17;25.13;;;22.73;;
14116;SDS011;7137;51.436;6.544;2022-08-19T09:34:21;21.77;;;19.70;;
14116;SDS011;7137;51.436;6.544;2022-08-19T09:37:23;22.37;;;20.10;;
14116;SDS011;7137;51.436;6.544;2022-08-19T09:40:25;21.23;;;19.23;;
14116;SDS011;7137;51.436;6.544;2022-08-19T09:43:28;17.30;;;15.50;;
14116;SDS011;7137;51.436;6.544;2022-08-19T09:46:31;18.57;;;16.77;;
14116;SDS011;7137;51.436;6.544;2022-08-19T09:49:33;19.47;;;17.63;;
14116;SDS011;7137;51.436;6.544;2022-08-19T09:52:35;18.43;;;16.63;;
14116;SDS011;7137;51.436;6.544;2022-08-19T09:55:41;19.03;;;17.13;;
14116;SDS011;7137;51.436;6.544;2022-08-19T09:58:42;15.83;;;14.27;;
14116;SDS011;7137;51.436;6.544;2022-08-19T10:01:44;15.53;;;13.70;;
14116;SDS011;7137;51.436;6.544;2022-08-19T10:04:47;17.07;;;15.27;;
14116;SDS011;7137;51.436;6.544;2022-08-19T10:08:06;16.13;;;14.57;;
14116;SDS011;7137;51.436;6.544;2022-08-19T10:11:08;15.20;;;13.17;;
14116;SDS011;7137;51.436;6.544;2022-08-19T10:14:10;12.97;;;11.53;;
14116;SDS011;7137;51.436;6.544;2022-08-19T10:17:13;14.57;;;12.93;;
14116;SDS011;7137;51.436;6.544;2022-08-19T10:20:16;16.33;;;14.70;;
14116;SDS011;7137;51.436;6.544;2022-08-19T10:23:17;15.23;;;13.63;;
14116;SDS011;7137;51.436;6.544;2022-08-19T10:26:21;15.13;;;13.60;;
14116;SDS011;7137;51.436;6.544;2022-08-19T10:29:25;15.57;;;13.77;;
14116;SDS011;7137;51.436;6.544;2022-08-19T10:32:27;15.67;;;14.13;;
14116;SDS011;7137;51.436;6.544;2022-08-19T10:35:32;16.20;;;14.60;;
14116;SDS011;7137;51.436;6.544;2022-08-19T10:38:34;11.73;;;10.47;;
14116;SDS011;7137;51.436;6.544;2022-08-19T10:41:36;17.77;;;16.13;;
14116;SDS011;7137;51.436;6.544;2022-08-19T10:44:39;16.63;;;14.93;;
14116;SDS011;7137;51.436;6.544;2022-08-19T10:47:41;15.27;;;13.67;;
14116;SDS011;7137;51.436;6.544;2022-08-19T10:50:43;14.93;;;13.20;;
14116;SDS011;7137;51.436;6.544;2022-08-19T10:54:03;16.33;;;13.40;;
14116;SDS011;7137;51.436;6.544;2022-08-19T10:57:04;14.17;;;12.77;;
14116;SDS011;7137;51.436;6.544;2022-08-19T11:00:05;11.43;;;10.20;;
14116;SDS011;7137;51.436;6.544;2022-08-19T11:03:08;12.20;;;11.00;;
14116;SDS011;7137;51.436;6.544;2022-08-19T11:06:11;13.00;;;11.70;;
14116;SDS011;7137;51.436;6.544;2022-08-19T11:09:13;16.00;;;12.93;;
14116;SDS011;7137;51.436;6.544;2022-08-19T11:12:16;13.80;;;12.40;;
14116;SDS011;7137;51.436;6.544;2022-08-19T11:15:20;16.57;;;13.83;;
14116;SDS011;7137;51.436;6.544;2022-08-19T11:18:22;13.10;;;11.53;;
14116;SDS011;7137;51.436;6.544;2022-08-19T11:21:26;12.53;;;10.57;;
14116;SDS011;7137;51.436;6.544;2022-08-19T11:24:31;12.07;;;9.60;;
14116;SDS011;7137;51.436;6.544;2022-08-19T11:27:33;11.10;;;8.83;;
14116;SDS011;7137;51.436;6.544;2022-08-19T11:30:39;8.30;;;7.40;;
14116;SDS011;7137;51.436;6.544;2022-08-19T11:33:40;10.33;;;7.60;;
14116;SDS011;7137;51.436;6.544;2022-08-19T11:36:44;8.60;;;7.70;;
14116;SDS011;7137;51.436;6.544;2022-08-19T11:39:47;10.03;;;6.90;;
14116;SDS011;7137;51.436;6.544;2022-08-19T11:42:49;9.40;;;7.33;;
14116;SDS011;7137;51.436;6.544;2022-08-19T11:45:56;8.80;;;6.93;;
14116;SDS011;7137;51.436;6.544;2022-08-19T11:48:59;9.83;;;6.40;;
14116;SDS011;7137;51.436;6.544;2022-08-19T11:52:03;9.20;;;7.20;;
14116;SDS011;7137;51.436;6.544;2022-08-19T11:55:05;7.93;;;6.20;;
14116;SDS011;7137;51.436;6.544;2022-08-19T11:58:08;8.57;;;5.97;;
14116;SDS011;7137;51.436;6.544;2022-08-19T12:01:10;7.70;;;4.90;;
14116;SDS011;7137;51.436;6.544;2022-08-19T12:04:13;6.47;;;4.77;;
14116;SDS011;7137;51.436;6.544;2022-08-19T12:07:16;6.63;;;4.50;;
14116;SDS011;7137;51.436;6.544;2022-08-19T12:10:18;8.63;;;6.50;;
14116;SDS011;7137;51.436;6.544;2022-08-19T12:13:19;8.03;;;5.07;;
14116;SDS011;7137;51.436;6.544;2022-08-19T12:16:23;8.73;;;5.00;;
14116;SDS011;7137;51.436;6.544;2022-08-19T12:19:26;7.90;;;5.30;;
14116;SDS011;7137;51.436;6.544;2022-08-19T12:22:30;5.20;;;4.67;;
14116;SDS011;7137;51.436;6.544;2022-08-19T12:25:31;6.80;;;5.30;;
14116;SDS011;7137;51.436;6.544;2022-08-19T12:28:34;7.03;;;4.70;;
14116;SDS011;7137;51.436;6.544;2022-08-19T12:31:36;4.97;;;3.43;;
14116;SDS011;7137;51.436;6.544;2022-08-19T12:34:37;9.47;;;5.23;;
14116;SDS011;7137;51.436;6.544;2022-08-19T12:37:41;7.43;;;4.33;;
14116;SDS011;7137;51.436;6.544;2022-08-19T12:40:45;6.17;;;4.30;;
14116;SDS011;7137;51.436;6.544;2022-08-19T12:43:47;6.37;;;5.13;;
14116;SDS011;7137;51.436;6.544;2022-08-19T12:46:50;5.80;;;4.37;;
14116;SDS011;7137;51.436;6.544;2022-08-19T12:49:51;5.80;;;3.90;;
14116;SDS011;7137;51.436;6.544;2022-08-19T12:52:55;6.53;;;5.63;;
14116;SDS011;7137;51.436;6.544;2022-08-19T12:55:58;7.90;;;5.83;;
14116;SDS011;7137;51.436;6.544;2022-08-19T12:59:00;6.87;;;5.67;;
14116;SDS011;7137;51.436;6.544;2022-08-19T13:02:02;8.20;;;5.60;;
14116;SDS011;7137;51.436;6.544;2022-08-19T13:05:05;6.77;;;4.90;;
14116;SDS011;7137;51.436;6.544;2022-08-19T13:08:12;6.67;;;4.90;;
14116;SDS011;7137;51.436;6.544;2022-08-19T13:11:14;8.37;;;5.80;;
14116;SDS011;7137;51.436;6.544;2022-08-19T13:14:18;6.13;;;4.67;;
14116;SDS011;7137;51.436;6.544;2022-08-19T13:17:20;6.23;;;4.60;;
14116;SDS011;7137;51.436;6.544;2022-08-19T13:20:23;6.63;;;4.73;;
14116;SDS011;7137;51.436;6.544;2022-08-19T13:23:26;6.33;;;4.40;;
14116;SDS011;7137;51.436;6.544;2022-08-19T13:26:28;7.23;;;6.00;;
14116;SDS011;7137;51.436;6.544;2022-08-19T13:29:29;7.93;;;6.20;;
14116;SDS011;7137;51.436;6.544;2022-08-19T13:32:48;6.83;;;4.93;;
14116;SDS011;7137;51.436;6.544;2022-08-19T13:36:07;7.90;;;6.47;;
14116;SDS011;7137;51.436;6.544;2022-08-19T13:39:10;7.10;;;5.03;;
14116;SDS011;7137;51.436;6.544;2022-08-19T13:42:12;7.17;;;6.17;;
14116;SDS011;7137;51.436;6.544;2022-08-19T13:45:14;10.10;;;7.10;;
14116;SDS011;7137;51.436;6.544;2022-08-19T13:48:17;7.80;;;6.30;;
14116;SDS011;7137;51.436;6.544;2022-08-19T13:51:19;7.93;;;5.37;;
14116;SDS011;7137;51.436;6.544;2022-08-19T13:54:22;9.27;;;5.53;;
14116;SDS011;7137;51.436;6.544;2022-08-19T13:57:23;6.93;;;5.10;;
14116;SDS011;7137;51.436;6.544;2022-08-19T14:00:26;5.53;;;4.30;;
14116;SDS011;7137;51.436;6.544;2022-08-19T14:03:29;6.87;;;5.07;;
14116;SDS011;7137;51.436;6.544;2022-08-19T14:06:32;8.53;;;4.80;;
14116;SDS011;7137;51.436;6.544;2022-08-19T14:09:36;8.73;;;4.80;;
14116;SDS011;7137;51.436;6.544;2022-08-19T14:12:37;6.57;;;4.63;;
14116;SDS011;7137;51.436;6.544;2022-08-19T14:15:40;7.13;;;5.20;;
14116;SDS011;7137;51.436;6.544;2022-08-19T14:18:42;6.77;;;5.37;;
14116;SDS011;7137;51.436;6.544;2022-08-19T14:21:45;6.20;;;4.47;;
14116;SDS011;7137;51.436;6.544;2022-08-19T14:24:51;6.60;;;4.80;;
14116;SDS011;7137;51.436;6.544;2022-08-19T14:27:53;9.13;;;5.93;;
14116;SDS011;7137;51.436;6.544;2022-08-19T14:30:55;6.13;;;4.37;;
14116;SDS011;7137;51.436;6.544;2022-08-19T14:33:57;6.17;;;4.97;;
14116;SDS011;7137;51.436;6.544;2022-08-19T14:36:59;10.30;;;5.40;;
14116;SDS011;7137;51.436;6.544;2022-08-19T14:40:02;9.13;;;5.50;;
14116;SDS011;7137;51.436;6.544;2022-08-19T14:43:04;7.73;;;4.60;;
14116;SDS011;7137;51.436;6.544;2022-08-19T14:46:06;6.43;;;4.03;;
14116;SDS011;7137;51.436;6.544;2022-08-19T14:49:08;6.23;;;4.27;;
14116;SDS011;7137;51.436;6.544;2022-08-19T14:52:09;7.97;;;5.47;;
14116;SDS011;7137;51.436;6.544;2022-08-19T14:55:16;7.83;;;5.80;;
14116;SDS011;7137;51.436;6.544;2022-08-19T14:58:18;5.97;;;4.30;;
14116;SDS011;7137;51.436;6.544;2022-08-19T15:01:20;7.10;;;5.47;;
14116;SDS011;7137;51.436;6.544;2022-08-19T15:04:23;8.90;;;5.47;;
14116;SDS011;7137;51.436;6.544;2022-08-19T15:07:24;9.67;;;6.50;;
14116;SDS011;7137;51.436;6.544;2022-08-19T15:10:27;8.70;;;7.77;;
14116;SDS011;7137;51.436;6.544;2022-08-19T15:13:29;10.07;;;8.73;;
14116;SDS011;7137;51.436;6.544;2022-08-19T15:16:32;12.40;;;9.83;;
14116;SDS011;7137;51.436;6.544;2022-08-19T15:19:34;10.50;;;9.33;;
14116;SDS011;7137;51.436;6.544;2022-08-19T15:22:35;11.20;;;10.00;;
14116;SDS011;7137;51.436;6.544;2022-08-19T15:25:38;18.63;;;10.27;;
14116;SDS011;7137;51.436;6.544;2022-08-19T15:28:41;12.67;;;11.20;;
14116;SDS011;7137;51.436;6.544;2022-08-19T15:31:43;11.37;;;10.13;;
14116;SDS011;7137;51.436;6.544;2022-08-19T15:34:45;11.03;;;9.70;;
14116;SDS011;7137;51.436;6.544;2022-08-19T15:37:48;10.10;;;9.10;;
14116;SDS011;7137;51.436;6.544;2022-08-19T15:40:52;13.40;;;11.10;;
14116;SDS011;7137;51.436;6.544;2022-08-19T15:44:16;12.40;;;11.03;;
14116;SDS011;7137;51.436;6.544;2022-08-19T15:47:21;12.97;;;11.53;;
14116;SDS011;7137;51.436;6.544;2022-08-19T15:50:22;11.70;;;10.47;;
14116;SDS011;7137;51.436;6.544;2022-08-19T15:53:24;10.87;;;9.50;;
14116;SDS011;7137;51.436;6.544;2022-08-19T15:56:27;12.73;;;10.83;;
14116;SDS011;7137;51.436;6.544;2022-08-19T15:59:52;12.13;;;10.73;;
14116;SDS011;7137;51.436;6.544;2022-08-19T16:03:12;10.97;;;9.70;;
14116;SDS011;7137;51.436;6.544;2022-08-19T16:06:32;11.77;;;10.50;;
14116;SDS011;7137;51.436;6.544;2022-08-19T16:09:34;12.70;;;10.27;;
14116;SDS011;7137;51.436;6.544;2022-08-19T16:12:37;13.13;;;10.73;;
14116;SDS011;7137;51.436;6.544;2022-08-19T16:15:41;12.90;;;10.27;;
14116;SDS011;7137;51.436;6.544;2022-08-19T16:18:43;14.30;;;12.43;;
14116;SDS011;7137;51.436;6.544;2022-08-19T16:21:47;13.17;;;11.33;;
14116;SDS011;7137;51.436;6.544;2022-08-19T16:24:51;13.73;;;12.33;;
14116;SDS011;7137;51.436;6.544;2022-08-19T16:27:54;10.93;;;9.70;;
14116;SDS011;7137;51.436;6.544;2022-08-19T16:30:56;11.93;;;10.67;;
14116;SDS011;7137;51.436;6.544;2022-08-19T16:33:57;13.20;;;11.73;;
14116;SDS011;7137;51.436;6.544;2022-08-19T16:36:59;13.03;;;11.73;;
14116;SDS011;7137;51.436;6.544;2022-08-19T16:40:00;12.23;;;10.97;;
14116;SDS011;7137;51.436;6.544;2022-08-19T16:43:04;13.47;;;10.63;;
14116;SDS011;7137;51.436;6.544;2022-08-19T16:46:07;12.13;;;10.83;;
14116;SDS011;7137;51.436;6.544;2022-08-19T16:49:09;12.73;;;10.80;;
14116;SDS011;7137;51.436;6.544;2022-08-19T16:52:11;11.13;;;9.90;;
14116;SDS011;7137;51.436;6.544;2022-08-19T16:55:13;11.60;;;10.40;;
14116;SDS011;7137;51.436;6.544;2022-08-19T16:58:17;11.23;;;10.13;;
14116;SDS011;7137;51.436;6.544;2022-08-19T17:01:19;12.67;;;11.37;;
14116;SDS011;7137;51.436;6.544;2022-08-19T17:04:20;12.77;;;11.30;;
14116;SDS011;7137;51.436;6.544;2022-08-19T17:07:22;13.77;;;12.37;;
14116;SDS011;7137;51.436;6.544;2022-08-19T17:10:23;13.80;;;12.23;;
14116;SDS011;7137;51.436;6.544;2022-08-19T17:13:27;12.37;;;11.17;;
14116;SDS011;7137;51.436;6.544;2022-08-19T17:16:31;13.30;;;11.47;;
14116;SDS011;7137;51.436;6.544;2022-08-19T17:19:34;11.63;;;10.17;;
14116;SDS011;7137;51.436;6.544;2022-08-19T17:22:36;11.33;;;10.10;;
14116;SDS011;7137;51.436;6.544;2022-08-19T17:25:37;10.70;;;9.20;;
14116;SDS011;7137;51.436;6.544;2022-08-19T17:28:40;9.43;;;8.40;;
14116;SDS011;7137;51.436;6.544;2022-08-19T17:31:42;9.23;;;7.80;;
14116;SDS011;7137;51.436;6.544;2022-08-19T17:34:43;8.10;;;6.63;;
14116;SDS011;7137;51.436;6.544;2022-08-19T17:37:45;8.57;;;6.40;;
14116;SDS011;7137;51.436;6.544;2022-08-19T17:40:48;8.33;;;6.00;;
14116;SDS011;7137;51.436;6.544;2022-08-19T17:43:52;7.40;;;5.47;;
14116;SDS011;7137;51.436;6.544;2022-08-19T17:46:54;7.13;;;5.63;;
14116;SDS011;7137;51.436;6.544;2022-08-19T17:49:55;6.57;;;4.87;;
14116;SDS011;7137;51.436;6.544;2022-08-19T17:52:57;7.13;;;5.77;;
14116;SDS011;7137;51.436;6.544;2022-08-19T17:56:00;6.60;;;5.50;;
14116;SDS011;7137;51.436;6.544;2022-08-19T17:59:02;6.97;;;5.33;;
14116;SDS011;7137;51.436;6.544;2022-08-19T18:02:04;6.33;;;5.07;;
14116;SDS011;7137;51.436;6.544;2022-08-19T18:05:06;6.80;;;4.80;;
14116;SDS011;7137;51.436;6.544;2022-08-19T18:08:08;7.13;;;5.87;;
14116;SDS011;7137;51.436;6.544;2022-08-19T18:11:11;8.33;;;6.10;;
14116;SDS011;7137;51.436;6.544;2022-08-19T18:14:18;7.97;;;5.47;;
14116;SDS011;7137;51.436;6.544;2022-08-19T18:17:20;8.73;;;5.93;;
14116;SDS011;7137;51.436;6.544;2022-08-19T18:20:22;7.13;;;5.87;;
14116;SDS011;7137;51.436;6.544;2022-08-19T18:23:24;7.20;;;6.00;;
14116;SDS011;7137;51.436;6.544;2022-08-19T18:26:25;7.27;;;5.53;;